Time;durP1;ratioP1;P1;durP2;ratioP2;P2;SDS_P1;SDS_P2;PMS_P1;PMS_P2;Temp;Humidity;BMP_temperature;BMP_pressure;BME280_temperature;BME280_humidity;BME280_pressure;Samples;Min_cycle;Max_cycle;Signal;HPM_P1;HPM_P2
2023/10/11 00:01:22;;;;;;;16.42;8.25;;;16.30;99.90;;;;;;5071617;28;20059;-70
2023/10/11 00:03:53;;;;;;;15.38;7.50;;;16.20;99.90;;;;;;5071647;28;20061;-70
2023/10/11 00:06:20;;;;;;;16.00;8.05;;;16.30;99.90;;;;;;5071506;28;20494;-70
2023/10/11 00:08:45;;;;;;;17.33;8.70;;;16.20;99.90;;;;;;5054803;28;20044;-70
2023/10/11 00:11:18;;;;;;;14.20;8.30;;;16.20;99.90;;;;;;5072955;28;20047;-70
2023/10/11 00:13:44;;;;;;;18.48;9.45;;;16.20;99.90;;;;;;5075503;28;20037;-70
2023/10/11 00:16:10;;;;;;;22.58;9.75;;;16.20;99.90;;;;;;5058922;28;20118;-70
2023/10/11 00:18:41;;;;;;;16.23;9.25;;;16.20;99.90;;;;;;5058540;28;20072;-70
2023/10/11 00:21:10;;;;;;;19.90;10.23;;;16.10;99.90;;;;;;5075321;28;20048;-70
2023/10/11 00:23:38;;;;;;;19.75;9.40;;;16.10;99.90;;;;;;5075269;28;20051;-70
2023/10/11 00:26:06;;;;;;;17.95;9.43;;;16.10;99.90;;;;;;5075114;28;20049;-70
2023/10/11 00:28:33;;;;;;;18.90;9.73;;;16.10;99.90;;;;;;5075398;28;20076;-70
2023/10/11 00:31:01;;;;;;;18.40;9.65;;;16.10;99.90;;;;;;5075090;28;20044;-70
2023/10/11 00:33:28;;;;;;;22.88;10.32;;;16.00;99.90;;;;;;5075092;28;20064;-70
2023/10/11 00:35:55;;;;;;;20.45;10.00;;;16.00;99.90;;;;;;5075199;28;20435;-70
2023/10/11 00:38:29;;;;;;;21.48;9.98;;;16.00;99.90;;;;;;5075003;28;20489;-70
2023/10/11 00:41:06;;;;;;;21.88;10.88;;;16.00;99.90;;;;;;5074973;28;20044;-70
2023/10/11 00:43:40;;;;;;;21.40;10.82;;;16.00;99.90;;;;;;5058299;28;20041;-70
2023/10/11 00:46:08;;;;;;;21.92;11.20;;;16.00;99.90;;;;;;5074762;28;20445;-70
2023/10/11 00:48:43;;;;;;;21.90;10.80;;;15.90;99.90;;;;;;5074776;28;20044;-70
2023/10/11 00:51:10;;;;;;;23.65;10.90;;;16.00;99.90;;;;;;5074814;28;20052;-70
2023/10/11 00:53:36;;;;;;;22.25;10.95;;;16.00;99.90;;;;;;5075993;28;20508;-70
2023/10/11 00:56:04;;;;;;;18.60;10.73;;;16.00;99.90;;;;;;5074595;28;20041;-70
2023/10/11 00:58:30;;;;;;;21.70;10.70;;;16.00;99.90;;;;;;5074644;28;20082;-70
2023/10/11 01:00:59;;;;;;;24.55;11.18;;;16.00;99.90;;;;;;5074554;28;20037;-70
2023/10/11 01:03:24;;;;;;;29.52;11.85;;;16.00;99.90;;;;;;5074534;28;20028;-70
2023/10/11 01:05:54;;;;;;;27.27;11.27;;;16.00;99.90;;;;;;5074678;28;20040;-70
2023/10/11 01:08:21;;;;;;;25.73;10.85;;;16.00;99.90;;;;;;5074469;28;20045;-70
2023/10/11 01:10:46;;;;;;;26.67;12.35;;;16.00;99.90;;;;;;5074334;28;20123;-70
2023/10/11 01:13:15;;;;;;;19.80;11.35;;;16.00;99.90;;;;;;5074377;28;20048;-70
2023/10/11 01:15:43;;;;;;;22.63;11.90;;;16.00;99.90;;;;;;5074246;28;20072;-70
2023/10/11 01:18:10;;;;;;;22.65;12.18;;;16.00;99.90;;;;;;5074150;28;20037;-70
2023/10/11 01:20:36;;;;;;;24.95;12.95;;;16.00;99.90;;;;;;5074217;28;20052;-70
2023/10/11 01:23:06;;;;;;;26.80;12.93;;;16.00;99.90;;;;;;5073497;28;20143;-70
2023/10/11 01:25:31;;;;;;;24.30;13.40;;;16.00;99.90;;;;;;5074066;28;20493;-70
2023/10/11 01:27:57;;;;;;;26.42;13.20;;;16.00;99.90;;;;;;5074100;28;20044;-70
2023/10/11 01:30:26;;;;;;;25.90;12.02;;;16.00;99.90;;;;;;5074116;28;20051;-70
2023/10/11 01:32:54;;;;;;;25.00;13.25;;;16.00;99.90;;;;;;5074016;28;20043;-70
2023/10/11 01:35:20;;;;;;;23.75;12.85;;;15.90;99.90;;;;;;5073881;28;20547;-70
2023/10/11 01:37:49;;;;;;;26.52;12.85;;;15.90;99.90;;;;;;5074155;28;20052;-70
2023/10/11 01:40:21;;;;;;;22.73;13.40;;;16.00;99.90;;;;;;5073855;28;20127;-70
2023/10/11 01:42:50;;;;;;;27.43;13.10;;;15.90;99.90;;;;;;5073847;28;20082;-70
2023/10/11 01:45:20;;;;;;;25.52;13.88;;;16.00;99.90;;;;;;5073678;28;20120;-70
2023/10/11 01:47:47;;;;;;;27.58;13.65;;;15.90;99.90;;;;;;5074017;28;20110;-70
2023/10/11 01:50:15;;;;;;;28.20;14.00;;;15.90;99.90;;;;;;5074815;28;20570;-70
2023/10/11 01:52:41;;;;;;;31.02;14.27;;;15.90;99.90;;;;;;5073844;28;20119;-70
2023/10/11 01:55:10;;;;;;;25.40;13.95;;;15.90;99.90;;;;;;5073458;28;20071;-70
2023/10/11 01:57:45;;;;;;;31.52;14.52;;;15.90;99.90;;;;;;5073525;28;20036;-70
2023/10/11 02:00:15;;;;;;;27.00;14.02;;;16.00;99.90;;;;;;5073483;28;20051;-70
2023/10/11 02:02:47;;;;;;;29.27;13.88;;;15.90;99.90;;;;;;5056993;28;20036;-70
2023/10/11 02:05:17;;;;;;;26.85;14.95;;;15.90;99.90;;;;;;5073338;28;20086;-70
2023/10/11 02:07:44;;;;;;;28.83;14.65;;;15.90;99.90;;;;;;5073603;28;20063;-70
2023/10/11 02:10:13;;;;;;;33.65;15.48;;;15.80;99.90;;;;;;5073174;28;20499;-70
2023/10/11 02:12:44;;;;;;;28.88;15.13;;;15.90;99.90;;;;;;5073492;28;20094;-70
2023/10/11 02:15:28;;;;;;;31.45;15.98;;;15.80;99.90;;;;;;5073086;28;20489;-70
2023/10/11 02:17:57;;;;;;;30.38;15.38;;;15.80;99.90;;;;;;5072970;28;20111;-70
2023/10/11 02:20:23;;;;;;;27.58;14.60;;;15.80;99.90;;;;;;5073270;28;20052;-70
2023/10/11 02:22:53;;;;;;;29.80;15.88;;;15.80;99.90;;;;;;5072961;28;20044;-70
2023/10/11 02:25:19;;;;;;;32.22;15.85;;;15.80;99.90;;;;;;5072900;28;20052;-70
2023/10/11 02:27:49;;;;;;;32.47;15.73;;;15.80;99.90;;;;;;5073182;28;20075;-70
2023/10/11 02:30:20;;;;;;;28.00;15.40;;;15.80;99.90;;;;;;5073005;28;20063;-70
2023/10/11 02:32:47;;;;;;;29.25;14.77;;;15.80;99.90;;;;;;5073409;28;20158;-70
2023/10/11 02:35:13;;;;;;;27.85;15.02;;;15.70;99.90;;;;;;5072789;28;20044;-70
2023/10/11 02:37:45;;;;;;;29.83;14.75;;;15.70;99.90;;;;;;5072743;28;20401;-70
2023/10/11 02:40:11;;;;;;;33.05;16.00;;;15.70;99.90;;;;;;5072679;28;20049;-70
2023/10/11 02:42:37;;;;;;;33.15;16.48;;;15.70;99.90;;;;;;5072646;28;20040;-70
2023/10/11 02:45:09;;;;;;;29.58;15.35;;;15.80;99.90;;;;;;5072519;28;20044;-70
2023/10/11 02:47:37;;;;;;;30.80;15.60;;;15.70;99.90;;;;;;5072533;28;20501;-70
2023/10/11 02:50:07;;;;;;;32.88;14.73;;;15.80;99.90;;;;;;5072630;28;20048;-70
2023/10/11 02:52:35;;;;;;;31.90;15.38;;;15.80;99.90;;;;;;5072427;28;20416;-70
2023/10/11 02:55:21;;;;;;;35.88;15.55;;;15.80;99.90;;;;;;5055659;28;20408;-70
2023/10/11 02:57:48;;;;;;;26.30;14.35;;;15.80;99.90;;;;;;5072380;28;20036;-70
2023/10/11 03:00:24;;;;;;;29.92;14.50;;;15.80;99.90;;;;;;5072321;28;20421;-70
2023/10/11 03:02:56;;;;;;;33.63;14.82;;;15.80;99.90;;;;;;5072326;28;20041;-70
2023/10/11 03:05:28;;;;;;;33.67;14.68;;;15.80;99.90;;;;;;5072476;28;20123;-70
2023/10/11 03:08:13;;;;;;;30.60;14.90;;;15.80;99.90;;;;;;5072259;28;20451;-70
2023/10/11 03:10:56;;;;;;;26.75;14.23;;;15.70;99.90;;;;;;5072180;28;20305;-70
2023/10/11 03:13:29;;;;;;;30.67;14.70;;;15.70;99.90;;;;;;5072196;28;20051;-70
2023/10/11 03:15:58;;;;;;;28.10;14.45;;;15.70;99.90;;;;;;5073536;28;20032;-70
2023/10/11 03:18:32;;;;;;;33.85;15.23;;;15.70;99.90;;;;;;5072097;28;20131;-70
2023/10/11 03:21:09;;;;;;;26.52;14.88;;;15.70;99.90;;;;;;5072369;28;20133;-70
2023/10/11 03:23:42;;;;;;;28.17;14.77;;;15.70;99.90;;;;;;5072323;28;20083;-70
2023/10/11 03:26:48;;;;;;;29.98;13.95;;;15.70;99.90;;;;;;5071908;28;20398;-70
2023/10/11 03:29:04;;;;;;;34.10;14.50;;;15.70;99.90;;;;;;5070965;28;20048;-70
2023/10/11 03:31:32;;;;;;;34.97;14.88;;;15.70;99.90;;;;;;5071849;28;20039;-70
2023/10/11 03:33:59;;;;;;;28.88;14.07;;;15.60;99.90;;;;;;5071872;28;20112;-70
2023/10/11 03:36:35;;;;;;;33.47;15.38;;;15.60;99.90;;;;;;5071780;28;20361;-70
2023/10/11 03:39:10;;;;;;;29.35;13.80;;;15.60;99.90;;;;;;5072102;28;20128;-70
2023/10/11 03:41:44;;;;;;;26.42;13.35;;;15.60;99.90;;;;;;5055618;28;20481;-70
2023/10/11 03:44:10;;;;;;;33.13;14.02;;;15.60;99.90;;;;;;5072069;28;20494;-70
2023/10/11 03:46:36;;;;;;;29.40;13.10;;;15.60;99.90;;;;;;5071062;28;20059;-70
2023/10/11 03:49:14;;;;;;;26.35;13.45;;;15.70;99.90;;;;;;5071744;28;20045;-70
2023/10/11 03:51:43;;;;;;;30.77;13.52;;;15.70;99.90;;;;;;5071665;28;20080;-70
2023/10/11 03:54:13;;;;;;;32.97;13.90;;;15.70;99.90;;;;;;5071676;28;20086;-70
2023/10/11 03:56:45;;;;;;;26.95;13.70;;;15.70;99.90;;;;;;5071610;28;20504;-70
2023/10/11 03:59:12;;;;;;;30.83;12.65;;;15.80;99.90;;;;;;5071717;28;20098;-70
2023/10/11 04:01:38;;;;;;;29.10;13.02;;;15.80;99.90;;;;;;5071564;28;20528;-70
2023/10/11 04:04:05;;;;;;;24.70;12.75;;;15.80;99.90;;;;;;5071607;28;20041;-70
2023/10/11 04:06:33;;;;;;;28.33;12.65;;;15.80;99.90;;;;;;5071750;28;20056;-70
2023/10/11 04:09:02;;;;;;;29.60;13.63;;;15.80;99.90;;;;;;5055165;28;20040;-70
2023/10/11 04:14:24;;;;;;;26.13;12.52;;;15.90;99.90;;;;;;5071785;28;20048;-70
2023/10/11 04:16:52;;;;;;;34.90;13.17;;;15.90;99.90;;;;;;5071409;28;20045;-70
2023/10/11 04:19:21;;;;;;;27.50;13.18;;;15.90;99.90;;;;;;5071499;28;20037;-70
2023/10/11 04:24:19;;;;;;;29.10;12.98;;;15.90;99.90;;;;;;5071413;28;20509;-70
2023/10/11 04:26:58;;;;;;;28.05;13.52;;;15.80;99.90;;;;;;5071563;28;20519;-70
2023/10/11 04:29:31;;;;;;;30.17;12.90;;;15.90;99.90;;;;;;5054882;28;20072;-70
2023/10/11 04:34:31;;;;;;;26.67;13.02;;;15.80;99.90;;;;;;5071297;28;20056;-70
2023/10/11 04:36:57;;;;;;;25.70;13.43;;;15.80;99.90;;;;;;5071346;28;20045;-70
2023/10/11 04:39:33;;;;;;;31.02;13.48;;;15.80;99.90;;;;;;5071273;28;20036;-70
2023/10/11 04:42:00;;;;;;;30.15;12.98;;;15.80;99.90;;;;;;5071313;28;20508;-70
2023/10/11 04:44:42;;;;;;;32.13;13.10;;;15.90;99.90;;;;;;5071443;28;20091;-70
2023/10/11 04:47:11;;;;;;;31.17;13.07;;;15.90;99.90;;;;;;5071245;28;20122;-70
2023/10/11 04:49:37;;;;;;;32.97;13.35;;;15.80;99.90;;;;;;5071348;28;20174;-70
2023/10/11 04:52:22;;;;;;;32.33;14.23;;;15.90;99.90;;;;;;5071145;28;20505;-70
2023/10/11 04:54:54;;;;;;;32.38;12.70;;;15.80;99.90;;;;;;5071256;28;20075;-70
2023/10/11 04:57:40;;;;;;;31.63;12.63;;;15.80;99.90;;;;;;5071285;28;20040;-70
2023/10/11 05:00:09;;;;;;;30.00;13.20;;;16.00;99.90;;;;;;5074645;28;20059;-70
2023/10/11 05:02:36;;;;;;;29.55;14.00;;;15.90;99.90;;;;;;5074573;28;20076;-70
2023/10/11 05:05:10;;;;;;;29.35;13.13;;;16.00;99.90;;;;;;5074503;28;20115;-70
2023/10/11 05:07:42;;;;;;;34.35;14.50;;;15.90;99.90;;;;;;5074776;28;20072;-70
2023/10/11 05:12:47;;;;;;;31.55;13.75;;;16.00;99.90;;;;;;5074695;28;20489;-70
2023/10/11 05:15:15;;;;;;;31.88;13.80;;;16.00;99.90;;;;;;5074278;28;20047;-70
2023/10/11 05:17:42;;;;;;;39.58;14.98;;;16.00;99.90;;;;;;5075397;28;20497;-70
2023/10/11 05:25:39;;;;;;;33.53;15.30;;;16.00;99.90;;;;;;5074083;28;20131;-70
2023/10/11 05:28:15;;;;;;;32.42;14.70;;;16.00;99.90;;;;;;5074153;28;20045;-70
2023/10/11 05:30:44;;;;;;;26.15;14.48;;;15.90;99.90;;;;;;5074156;28;20051;-70
2023/10/11 05:36:32;;;;;;;32.45;15.27;;;15.90;99.90;;;;;;5056404;28;20052;-70
2023/10/11 05:52:38;;;;;;;35.55;14.98;;;15.80;99.90;;;;;;5056151;28;20044;-70
2023/10/11 05:55:06;;;;;;;33.03;15.40;;;15.90;99.90;;;;;;5055946;28;20116;-70
2023/10/11 05:57:32;;;;;;;37.70;17.10;;;15.80;99.90;;;;;;5055948;28;20041;-70
2023/10/11 06:00:02;;;;;;;38.67;16.15;;;15.90;99.90;;;;;;5056091;28;20057;-70
2023/10/11 06:02:28;;;;;;;36.33;16.00;;;15.80;99.90;;;;;;5055907;28;20056;-70
2023/10/11 06:04:55;;;;;;;32.45;15.82;;;15.80;99.90;;;;;;5055731;28;20131;-70
2023/10/11 06:07:21;;;;;;;32.45;15.68;;;15.80;99.90;;;;;;5055830;28;20115;-70
2023/10/11 06:09:52;;;;;;;33.22;16.40;;;15.80;99.90;;;;;;5055393;28;20048;-70
2023/10/11 06:12:29;;;;;;;37.63;16.83;;;15.70;99.90;;;;;;5062349;28;20048;-70
2023/10/11 06:14:56;;;;;;;36.53;17.25;;;15.70;99.90;;;;;;5073177;28;20544;-70
2023/10/11 06:17:41;;;;;;;37.70;16.50;;;15.70;99.90;;;;;;5073014;28;20059;-70
2023/10/11 06:20:27;;;;;;;42.72;16.88;;;15.70;99.90;;;;;;5073122;28;20048;-70
2023/10/11 06:22:56;;;;;;;38.67;16.92;;;15.70;99.90;;;;;;5056401;28;20045;-70
2023/10/11 06:25:23;;;;;;;35.58;16.58;;;15.60;99.90;;;;;;5072909;28;20047;-70
2023/10/11 06:30:23;;;;;;;36.50;17.73;;;15.70;99.90;;;;;;5072903;28;20044;-70
2023/10/11 06:32:52;;;;;;;41.80;17.73;;;15.70;99.90;;;;;;5072844;28;20041;-70
2023/10/11 06:35:24;;;;;;;36.25;18.75;;;15.70;99.90;;;;;;5072666;28;20401;-70
2023/10/11 06:37:54;;;;;;;38.30;17.50;;;15.80;99.90;;;;;;5074588;28;20384;-70
2023/10/11 06:40:38;;;;;;;35.05;18.65;;;15.80;99.90;;;;;;5072932;28;20047;-70
2023/10/11 06:43:08;;;;;;;47.88;19.45;;;15.80;99.90;;;;;;5072664;28;20521;-70
2023/10/11 06:45:35;;;;;;;37.22;18.40;;;15.80;99.90;;;;;;5072495;28;20381;-70
2023/10/11 06:48:06;;;;;;;42.72;18.35;;;15.90;99.90;;;;;;5072670;28;20048;-70
2023/10/11 06:50:38;;;;;;;37.03;18.17;;;15.90;99.90;;;;;;5072681;28;20055;-70
2023/10/11 06:53:08;;;;;;;42.37;19.13;;;16.00;99.90;;;;;;5072492;28;20589;-70
2023/10/11 06:55:39;;;;;;;41.20;19.77;;;16.00;99.90;;;;;;5072429;28;20040;-70
2023/10/11 06:58:09;;;;;;;41.15;18.40;;;16.00;99.90;;;;;;5072383;28;20040;-70
2023/10/11 07:00:45;;;;;;;33.58;18.05;;;16.00;99.90;;;;;;5072446;28;20082;-70
2023/10/11 07:03:26;;;;;;;42.50;18.85;;;16.00;99.90;;;;;;5072798;28;20036;-70
2023/10/11 07:05:59;;;;;;;40.15;19.08;;;16.10;99.90;;;;;;5072714;28;20147;-70
2023/10/11 07:08:31;;;;;;;40.03;19.20;;;16.00;99.90;;;;;;5072331;28;20050;-70
2023/10/11 07:11:04;;;;;;;35.28;19.00;;;16.00;99.90;;;;;;5072118;28;20127;-70
2023/10/11 07:13:49;;;;;;;45.92;19.45;;;16.10;99.90;;;;;;5072416;28;20045;-70
2023/10/11 07:16:19;;;;;;;37.45;19.00;;;16.10;99.90;;;;;;5072031;28;20071;-70
2023/10/11 07:18:46;;;;;;;43.53;19.15;;;16.20;99.90;;;;;;5071936;28;20048;-70
2023/10/11 07:21:14;;;;;;;41.22;20.35;;;16.10;99.90;;;;;;5071287;28;20048;-70
2023/10/11 07:23:55;;;;;;;42.58;18.55;;;16.20;99.90;;;;;;5071999;28;20051;-70
2023/10/11 07:29:00;;;;;;;40.85;18.63;;;16.10;99.90;;;;;;5072232;28;20040;-70
2023/10/11 07:31:35;;;;;;;37.85;19.77;;;16.20;99.90;;;;;;5071850;28;20098;-70
2023/10/11 07:34:05;;;;;;;35.85;18.73;;;16.20;99.90;;;;;;5073722;28;20544;-70
2023/10/11 07:36:38;;;;;;;46.25;19.65;;;16.10;99.90;;;;;;5071820;28;20379;-70
2023/10/11 07:39:14;;;;;;;43.30;19.05;;;16.20;99.90;;;;;;5071886;28;20052;-70
2023/10/11 07:41:44;;;;;;;44.55;19.67;;;16.30;99.90;;;;;;5071838;28;20124;-70
2023/10/11 07:44:12;;;;;;;45.35;21.08;;;16.30;99.90;;;;;;5072014;28;20052;-70
2023/10/11 07:46:38;;;;;;;37.67;20.38;;;16.20;99.90;;;;;;5071817;28;20116;-70
2023/10/11 07:49:05;;;;;;;41.30;19.60;;;16.30;99.90;;;;;;5071848;28;20091;-70
2023/10/11 07:51:39;;;;;;;42.67;19.83;;;16.30;99.90;;;;;;5071780;28;20046;-70
2023/10/11 07:54:11;;;;;;;46.88;21.55;;;16.30;99.90;;;;;;5071748;28;20048;-70
2023/10/11 07:56:37;;;;;;;48.50;22.40;;;16.30;99.90;;;;;;5071678;28;20036;-70
2023/10/11 07:59:09;;;;;;;43.90;20.23;;;16.30;99.90;;;;;;5071759;28;20040;-70
2023/10/11 08:01:44;;;;;;;52.20;21.83;;;16.40;99.90;;;;;;5071579;28;20124;-70
2023/10/11 08:04:17;;;;;;;50.85;21.45;;;16.30;99.90;;;;;;5071939;28;20147;-70
2023/10/11 08:06:44;;;;;;;50.25;21.52;;;16.50;99.90;;;;;;5071591;28;20045;-70
2023/10/11 08:09:18;;;;;;;47.20;20.90;;;16.30;99.90;;;;;;5071598;28;20488;-70
2023/10/11 08:11:52;;;;;;;54.35;22.08;;;16.40;99.90;;;;;;5071521;28;20055;-70
2023/10/11 08:14:22;;;;;;;51.50;22.85;;;16.50;99.90;;;;;;5071555;28;20080;-70
2023/10/11 08:16:52;;;;;;;47.85;21.98;;;16.40;99.90;;;;;;5071384;28;20040;-70
2023/10/11 08:19:18;;;;;;;52.45;21.13;;;16.40;99.90;;;;;;5071488;28;20400;-70
2023/10/11 08:21:47;;;;;;;52.17;21.42;;;16.50;99.90;;;;;;5072727;28;20055;-70
2023/10/11 08:24:15;;;;;;;46.72;21.95;;;16.40;99.90;;;;;;5071696;28;20048;-70
2023/10/11 08:26:42;;;;;;;39.75;21.45;;;16.40;99.90;;;;;;5072585;28;20098;-70
2023/10/11 08:29:17;;;;;;;53.22;22.38;;;16.50;99.90;;;;;;5071361;28;20036;-70
2023/10/11 08:31:44;;;;;;;46.95;22.17;;;16.50;99.90;;;;;;5072077;28;20048;-70
2023/10/11 08:34:14;;;;;;;54.60;22.92;;;16.50;99.90;;;;;;5075115;28;20045;-70
2023/10/11 08:36:41;;;;;;;53.25;23.88;;;16.50;99.90;;;;;;5075058;28;20041;-70
2023/10/11 08:39:08;;;;;;;45.45;20.35;;;16.50;99.90;;;;;;5075015;28;20044;-70
2023/10/11 08:41:34;;;;;;;47.17;24.52;;;16.60;99.90;;;;;;5058256;28;20064;-70
2023/10/11 08:44:01;;;;;;;52.13;23.52;;;16.60;99.90;;;;;;5074951;28;20036;-70
2023/10/11 08:46:32;;;;;;;57.65;24.80;;;16.60;99.90;;;;;;5074822;28;20036;-70
2023/10/11 08:49:00;;;;;;;51.13;24.35;;;16.60;99.90;;;;;;5074899;28;20509;-70
2023/10/11 08:51:36;;;;;;;52.92;23.98;;;16.50;99.90;;;;;;5074717;28;20049;-70
2023/10/11 08:54:03;;;;;;;52.40;22.90;;;16.60;99.90;;;;;;5075074;28;20087;-70
2023/10/11 08:56:29;;;;;;;41.63;19.65;;;16.60;99.90;;;;;;5074663;28;20401;-70
2023/10/11 08:58:54;;;;;;;46.40;21.23;;;16.60;99.90;;;;;;5074947;28;20044;-70
2023/10/11 09:01:24;;;;;;;48.15;20.02;;;16.70;99.90;;;;;;5074746;28;20493;-70
2023/10/11 09:04:07;;;;;;;43.85;19.70;;;16.70;99.90;;;;;;5074606;28;20417;-70
2023/10/11 09:06:35;;;;;;;39.85;20.30;;;16.70;99.90;;;;;;5074532;28;20078;-70
2023/10/11 09:09:03;;;;;;;50.20;21.60;;;16.70;99.90;;;;;;5074471;28;20049;-70
2023/10/11 09:11:29;;;;;;;45.40;21.63;;;16.70;99.90;;;;;;5074378;28;20048;-70
2023/10/11 09:14:22;;;;;;;38.53;17.38;;;16.80;99.90;;;;;;5074658;28;20417;-70
2023/10/11 09:16:52;;;;;;;37.65;18.38;;;16.80;99.90;;;;;;5074207;28;20405;-70
2023/10/11 09:19:20;;;;;;;38.15;17.92;;;16.80;99.90;;;;;;5074350;28;20485;-70
2023/10/11 09:22:02;;;;;;;33.00;17.17;;;16.90;99.90;;;;;;5074469;28;20040;-70
2023/10/11 09:24:38;;;;;;;36.92;17.27;;;16.90;99.90;;;;;;5074434;28;20056;-70
2023/10/11 09:29:43;;;;;;;34.47;16.60;;;17.00;99.90;;;;;;5074366;28;20505;-70
2023/10/11 09:32:09;;;;;;;33.58;16.15;;;16.90;99.90;;;;;;5074035;28;20040;-70
2023/10/11 09:34:41;;;;;;;36.83;16.77;;;17.00;99.90;;;;;;5073950;28;20508;-70
2023/10/11 09:37:11;;;;;;;34.30;16.73;;;17.00;99.90;;;;;;5074029;28;20040;-70
2023/10/11 09:39:46;;;;;;;34.58;16.10;;;17.10;99.90;;;;;;5073893;28;20075;-70
2023/10/11 09:42:15;;;;;;;32.70;13.63;;;17.10;99.90;;;;;;5073914;28;20508;-70
2023/10/11 09:44:46;;;;;;;29.73;13.48;;;17.10;99.90;;;;;;5072910;28;20493;-70
2023/10/11 09:47:19;;;;;;;28.60;11.95;;;17.10;99.90;;;;;;5073839;28;20098;-70
2023/10/11 09:49:47;;;;;;;26.77;12.68;;;17.10;99.90;;;;;;5073685;28;20094;-70
2023/10/11 09:52:16;;;;;;;26.70;11.57;;;17.10;99.90;;;;;;5074933;28;20508;-70
2023/10/11 09:54:43;;;;;;;27.52;12.02;;;17.10;99.90;;;;;;5073831;28;20032;-70
2023/10/11 09:57:50;;;;;;;23.55;10.68;;;17.10;99.90;;;;;;5073872;28;20028;-70
2023/10/11 10:00:54;;;;;;;21.23;9.45;;;17.20;99.90;;;;;;5073861;28;20161;-70
2023/10/11 10:03:24;;;;;;;18.80;8.25;;;17.20;99.90;;;;;;5063803;28;20131;-70
2023/10/11 10:06:05;;;;;;;20.88;9.02;;;17.20;99.90;;;;;;5073851;28;20036;-70
2023/10/11 10:08:30;;;;;;;19.48;7.97;;;17.50;99.90;;;;;;5073381;28;20044;-70
2023/10/11 10:10:56;;;;;;;21.00;7.75;;;17.60;99.90;;;;;;5073242;28;20040;-70
2023/10/11 10:13:24;;;;;;;20.30;8.40;;;17.80;99.90;;;;;;5073356;28;20052;-70
2023/10/11 10:15:52;;;;;;;20.15;7.65;;;17.80;99.90;;;;;;5074559;28;20040;-70
2023/10/11 10:18:22;;;;;;;15.32;6.72;;;17.90;99.90;;;;;;5073592;28;20059;-70
2023/10/11 10:21:04;;;;;;;16.98;6.63;;;17.90;99.90;;;;;;5056882;28;20048;-73
2023/10/11 10:23:32;;;;;;;16.88;6.68;;;18.00;99.90;;;;;;5073064;28;20044;-70
2023/10/11 10:26:04;;;;;;;16.65;6.43;;;17.90;99.90;;;;;;5073020;28;20079;-70
2023/10/11 10:28:35;;;;;;;17.05;6.88;;;18.00;99.90;;;;;;5056460;28;20079;-70
2023/10/11 10:31:04;;;;;;;16.33;6.05;;;18.00;99.90;;;;;;5072936;28;20037;-70
2023/10/11 10:33:35;;;;;;;15.90;5.82;;;18.10;99.90;;;;;;5072954;28;20501;-70
2023/10/11 10:36:20;;;;;;;12.40;5.47;;;18.20;99.90;;;;;;5073049;28;20115;-70
2023/10/11 10:41:42;;;;;;;12.20;5.50;;;18.30;99.90;;;;;;5055247;28;20558;-70
2023/10/11 10:44:17;;;;;;;12.63;5.82;;;18.20;99.90;;;;;;5055084;28;20044;-69
2023/10/11 10:46:50;;;;;;;15.27;5.65;;;18.20;99.90;;;;;;5055300;28;20044;-70
2023/10/11 10:49:17;;;;;;;12.50;6.10;;;18.20;99.90;;;;;;5055288;28;20080;-70
2023/10/11 10:51:47;;;;;;;12.93;5.95;;;18.20;99.90;;;;;;5055094;28;20048;-70
2023/10/11 10:54:13;;;;;;;13.05;5.25;;;18.50;99.90;;;;;;5071633;28;20050;-70
2023/10/11 10:56:42;;;;;;;12.85;5.78;;;18.70;99.90;;;;;;5054990;28;20058;-70
2023/10/11 10:59:12;;;;;;;13.13;5.45;;;18.70;99.90;;;;;;5055017;28;20429;-70
2023/10/11 11:01:46;;;;;;;12.40;5.57;;;18.70;99.90;;;;;;5055110;28;20041;-70
2023/10/11 11:04:14;;;;;;;9.63;4.75;;;19.00;99.90;;;;;;5054798;28;20075;-70
2023/10/11 11:06:50;;;;;;;12.82;4.72;;;19.40;99.90;;;;;;5054928;28;20049;-70
2023/10/11 11:09:25;;;;;;;13.93;4.18;;;19.80;99.90;;;;;;5054777;28;20051;-70
2023/10/11 11:12:02;;;;;;;10.80;4.72;;;20.10;99.90;;;;;;5054782;28;20086;-70
2023/10/11 11:14:28;;;;;;;8.18;4.32;;;20.40;99.90;;;;;;5054598;28;20037;-70
2023/10/11 11:16:58;;;;;;;11.40;4.38;;;20.30;99.90;;;;;;5054407;28;20044;-70
2023/10/11 11:19:26;;;;;;;10.65;4.05;;;20.40;99.90;;;;;;5072122;28;20504;-71
2023/10/11 11:22:12;;;;;;;10.27;3.63;;;20.70;99.90;;;;;;5072295;28;20141;-71
2023/10/11 11:24:41;;;;;;;8.85;4.00;;;20.60;99.90;;;;;;5055363;28;20051;-71
2023/10/11 11:27:25;;;;;;;13.95;4.30;;;20.60;99.90;;;;;;5072005;28;20075;-71
2023/10/11 11:29:54;;;;;;;10.68;4.22;;;20.60;99.90;;;;;;5071982;28;20550;-71
2023/10/11 11:32:39;;;;;;;11.10;4.78;;;20.50;99.90;;;;;;5072245;28;20542;-71
2023/10/11 11:35:10;;;;;;;9.27;3.95;;;20.50;99.90;;;;;;5071874;28;20036;-71
2023/10/11 11:38:01;;;;;;;10.60;4.05;;;20.30;99.90;;;;;;5071991;28;20040;-71
2023/10/11 11:40:27;;;;;;;11.40;4.00;;;20.10;99.90;;;;;;5072063;28;20427;-71
2023/10/11 11:42:53;;;;;;;15.68;3.90;;;19.90;99.90;;;;;;5073174;28;20037;-71
2023/10/11 11:45:20;;;;;;;12.82;4.45;;;19.80;99.90;;;;;;5071761;28;20089;-71
2023/10/11 11:47:58;;;;;;;13.27;4.78;;;19.70;99.90;;;;;;5071767;28;20044;-71
2023/10/11 11:50:25;;;;;;;10.93;4.45;;;19.70;99.90;;;;;;5072015;28;20512;-71
2023/10/11 11:52:51;;;;;;;9.48;4.35;;;19.60;99.90;;;;;;5071805;28;20051;-71
2023/10/11 11:55:22;;;;;;;13.25;4.78;;;19.60;99.90;;;;;;5055029;28;20036;-71
2023/10/11 11:57:48;;;;;;;12.80;4.20;;;19.60;99.90;;;;;;5071749;28;20044;-71
2023/10/11 12:02:52;;;;;;;12.35;4.20;;;19.50;99.90;;;;;;5071702;28;20045;-71
2023/10/11 12:05:18;;;;;;;9.88;4.25;;;19.50;99.90;;;;;;5071585;28;20518;-71
2023/10/11 12:07:44;;;;;;;10.00;3.90;;;19.50;99.90;;;;;;5074337;28;20123;-71
2023/10/11 12:10:25;;;;;;;11.55;3.92;;;19.50;99.90;;;;;;5075589;28;20041;-71
2023/10/11 12:13:01;;;;;;;9.68;4.25;;;19.40;99.90;;;;;;5075628;28;20052;-71
2023/10/11 12:15:28;;;;;;;12.00;4.45;;;19.40;99.90;;;;;;5076162;28;20051;-71
2023/10/11 12:17:54;;;;;;;11.10;3.53;;;19.70;99.90;;;;;;5075333;28;20045;-71
2023/10/11 12:20:22;;;;;;;10.05;3.38;;;20.30;99.90;;;;;;5059131;28;20041;-71
2023/10/11 12:22:50;;;;;;;7.18;3.58;;;21.00;99.90;;;;;;5075407;28;20052;-71
2023/10/11 12:25:24;;;;;;;11.43;3.45;;;21.50;99.90;;;;;;5075276;28;20048;-71
2023/10/11 12:27:51;;;;;;;10.48;3.25;;;21.90;99.90;;;;;;5075405;28;20119;-71
2023/10/11 12:30:22;;;;;;;10.82;3.80;;;22.20;99.90;;;;;;5075169;28;20041;-71
2023/10/11 12:32:49;;;;;;;11.00;3.58;;;22.10;99.90;;;;;;5075239;28;20040;-71
2023/10/11 12:35:15;;;;;;;9.32;3.83;;;21.90;99.90;;;;;;5075147;28;20432;-71
2023/10/11 12:37:41;;;;;;;11.15;4.07;;;21.70;99.90;;;;;;5075091;28;20041;-71
2023/10/11 12:40:13;;;;;;;10.98;4.40;;;21.60;99.90;;;;;;5075058;28;20047;-71
2023/10/11 12:42:42;;;;;;;11.40;4.10;;;21.50;99.90;;;;;;5075346;28;20123;-71
2023/10/11 12:45:08;;;;;;;8.65;3.30;;;21.60;99.90;;;;;;5074844;28;20519;-71
2023/10/11 12:47:36;;;;;;;11.60;3.80;;;21.60;99.90;;;;;;5074926;28;20044;-71
2023/10/11 12:50:05;;;;;;;9.90;3.72;;;21.50;99.90;;;;;;5074764;28;20040;-71
2023/10/11 12:52:32;;;;;;;12.70;3.33;;;21.20;99.90;;;;;;5074837;28;20044;-71
2023/10/11 12:54:57;;;;;;;11.57;3.92;;;21.00;99.90;;;;;;5074748;28;20533;-71
2023/10/11 12:57:27;;;;;;;7.15;3.28;;;20.80;99.90;;;;;;5075040;28;20116;-71
2023/10/11 12:59:52;;;;;;;7.25;3.00;;;20.70;99.90;;;;;;5074675;28;20045;-71
2023/10/11 13:02:21;;;;;;;13.77;3.55;;;20.60;99.90;;;;;;5074673;28;20045;-71
2023/10/11 13:04:47;;;;;;;12.57;3.67;;;20.50;99.90;;;;;;5074572;28;20036;-71
2023/10/11 13:07:16;;;;;;;9.02;3.20;;;20.40;99.90;;;;;;5074805;28;20039;-71
2023/10/11 13:09:42;;;;;;;8.98;3.45;;;20.40;99.90;;;;;;5074423;28;20090;-71
2023/10/11 13:12:08;;;;;;;12.43;3.50;;;20.30;99.90;;;;;;5074481;28;20040;-71
2023/10/11 13:14:35;;;;;;;22.10;5.57;;;20.40;99.90;;;;;;5074384;28;20048;-71
2023/10/11 13:17:05;;;;;;;7.25;3.47;;;20.50;99.90;;;;;;5074287;28;20040;-71
2023/10/11 13:19:31;;;;;;;9.25;3.30;;;20.40;99.90;;;;;;5073085;28;20089;-71
2023/10/11 13:21:56;;;;;;;12.45;3.53;;;20.40;99.90;;;;;;5074296;28;20040;-71
2023/10/11 13:24:26;;;;;;;9.93;3.28;;;20.30;99.90;;;;;;5074235;28;20048;-71
2023/10/11 13:26:54;;;;;;;7.10;3.28;;;20.20;99.90;;;;;;5075596;28;20117;-71
2023/10/11 13:29:21;;;;;;;9.48;3.45;;;20.30;99.90;;;;;;5074197;28;20097;-71
2023/10/11 13:31:54;;;;;;;11.52;3.42;;;20.20;99.90;;;;;;5074043;28;20048;-71
2023/10/11 13:34:30;;;;;;;8.27;2.67;;;20.10;99.90;;;;;;5074389;28;20040;-70